Date,TemperatureHighF,TemperatureAvgF,TemperatureLowF,DewpointHighF,DewpointAvgF,DewpointLowF,HumidityHigh,HumidityAvg,HumidityLow,PressureMaxIn,PressureMinIn,WindSpeedMaxMPH,WindSpeedAvgMPH,GustSpeedMaxMPH,PrecipitationSumIn
2013-7-1,82.6,76.6,72.5,76.9,73.6,71.3,98,90,75,29.96,29.81,0,0,0,0.12
2013-7-2,84.2,75.5,65.1,75.0,71.1,62.0,95,86,69,30.09,29.95,0,0,0,0.00
2013-7-3,88.5,77.4,64.0,73.9,70.0,61.9,94,79,58,30.08,30.00,0,0,0,0.00
2013-7-4,92.3,83.5,74.3,75.8,73.9,71.6,96,75,53,30.08,29.96,0,0,0,0.00
2013-7-5,94.1,85.6,78.1,76.5,74.1,71.9,86,70,49,30.03,29.91,0,0,0,0.02
2013-7-6,91.8,83.6,77.7,75.3,72.8,66.4,87,71,49,29.95,29.84,0,0,0,0.15
2013-7-7,92.5,81.5,73.8,76.1,70.8,65.1,88,71,53,29.90,29.77,0,0,0,0.00
2013-7-8,85.6,78.6,71.4,76.1,72.8,65.8,94,83,67,29.94,29.77,0,0,0,0.00
2013-7-9,75.0,70.5,66.9,68.8,66.4,65.0,96,87,79,29.98,29.92,0,0,0,0.00
2013-7-10,86.5,75.3,68.0,75.7,71.5,65.3,99,88,67,29.95,29.67,0,0,0,0.04
2013-7-11,81.7,77.4,73.8,75.1,73.2,69.5,97,87,73,29.79,29.65,0,0,0,0.13
2013-7-12,78.1,72.9,68.9,71.2,62.6,56.9,92,71,53,30.07,29.79,0,0,0,0.00
2013-7-13,78.3,71.7,68.0,70.2,66.9,63.5,95,85,75,30.19,30.08,0,0,0,0.02
2013-7-14,91.8,79.9,70.2,75.4,71.8,67.7,98,78,47,30.18,30.07,0,0,0,0.00
2013-7-15,91.4,82.6,74.1,74.3,72.1,69.0,95,73,48,30.08,29.97,0,0,0,0.00
2013-7-16,93.7,82.9,74.1,74.5,69.2,64.0,87,65,39,30.04,29.98,0,0,0,0.00
2013-7-17,95.2,85.2,74.8,74.9,71.6,68.3,87,66,43,30.05,29.87,0,0,0,0.00
2013-7-18,91.0,83.8,78.8,76.1,72.5,67.4,83,70,51,29.88,29.82,0,0,0,0.00
2013-7-19,97.3,87.7,78.1,78.9,74.8,70.5,91,68,43,29.82,29.59,0,0,0,0.00
2013-7-20,94.1,86.5,81.0,77.7,74.2,64.8,85,68,46,29.67,29.51,0,0,0,0.00
2013-7-21,81.7,76.7,72.1,70.1,66.0,61.6,91,70,53,29.86,29.68,0,0,0,0.09
2013-7-22,82.0,74.7,69.8,71.3,69.0,66.5,95,83,64,29.89,29.77,0,0,0,0.00
2013-7-23,80.4,73.6,70.3,77.4,72.2,67.9,99,95,86,29.76,29.42,0,0,0,1.24
2013-7-24,85.1,77.4,69.1,75.9,68.4,56.0,99,76,54,29.84,29.46,0,0,0,0.00
2013-7-25,69.1,62.9,60.4,60.4,56.1,49.8,99,79,61,29.97,29.83,0,0,0,0.35
2013-7-26,70.9,65.4,60.4,68.5,64.0,60.2,99,95,84,29.93,29.79,0,0,0,0.76
2013-7-27,83.7,72.6,61.3,68.3,64.7,60.7,98,78,50,29.93,29.86,0,0,0,0.01
2013-7-28,80.8,73.0,68.9,71.8,69.0,65.6,97,88,73,29.89,29.84,0,0,0,0.04
2013-7-29,83.3,73.6,68.7,71.9,69.2,66.9,97,87,66,30.03,29.85,0,0,0,0.11
2013-7-30,82.6,73.9,64.6,69.7,61.1,55.1,99,67,41,30.09,30.02,0,0,0,0.01
2013-7-31,81.5,73.9,65.3,65.0,60.8,54.8,85,65,41,30.13,30.04,0,0,0,0.00